YQX weather

Gander International Airport
Gander, Newfoundland and Labrador, Canada

Public forecast

Using degrees Celsius for public forecast. Weather courtesy of forecast.io.

Current aviation weather report (METAR) for Gander International Airport

Retrieved 2019/11/15 09:00 UTC (5 minutes ago):

CYQX 150900Z 13005KT 20SM SCT160 BKN260 M06/M09 A3047 RMK AC3CI3 FROIN SLP329

Aviation forecast (TAF) for Gander International Airport

Retrieved 2019/11/15 06:00 UTC (3 hours ago):

TAF CYQX 150538Z 1506/1606 18008KT P6SM SCT130 BECMG 1513/1515 18015G25KT FM151600 19020G30KT P6SM BKN030 BKN120 BECMG 1520/1522 18015G25KT FM160000 18018G28KT P6SM SCT020 TEMPO 1600/1603 P6SM -RA BKN020 FM160300 18025G35KT 6SM -RA OVC020 RMK NXT FCST BY 151200Z